sensor_id;sensor_type;location;lat;lon;timestamp;pressure;altitude;pressure_sealevel;temperature;humidity
18850;BME280;4989;48.772;9.154;2023-03-23T00:02:43;97425.63;;;15.32;53.76
18850;BME280;4989;48.772;9.154;2023-03-23T00:07:47;97424.09;;;15.55;53.19
18850;BME280;4989;48.772;9.154;2023-03-23T00:12:54;97416.41;;;15.69;53.08
18850;BME280;4989;48.772;9.154;2023-03-23T00:18:02;97419.91;;;15.45;53.78
18850;BME280;4989;48.772;9.154;2023-03-23T00:23:05;97412.28;;;15.49;57.96
18850;BME280;4989;48.772;9.154;2023-03-23T00:28:08;97404.13;;;15.40;54.66
18850;BME280;4989;48.772;9.154;2023-03-23T00:33:13;97395.38;;;15.27;55.05
18850;BME280;4989;48.772;9.154;2023-03-23T00:38:16;97389.56;;;15.34;54.86
18850;BME280;4989;48.772;9.154;2023-03-23T00:43:19;97389.72;;;15.30;55.11
18850;BME280;4989;48.772;9.154;2023-03-23T00:48:25;97386.66;;;15.14;55.20
18850;BME280;4989;48.772;9.154;2023-03-23T00:53:28;97372.53;;;15.30;54.79
18850;BME280;4989;48.772;9.154;2023-03-23T00:58:30;97369.31;;;15.17;56.06
18850;BME280;4989;48.772;9.154;2023-03-23T01:03:34;97370.38;;;14.95;55.29
18850;BME280;4989;48.772;9.154;2023-03-23T01:08:38;97375.34;;;14.73;55.94
18850;BME280;4989;48.772;9.154;2023-03-23T01:13:47;97374.09;;;14.83;55.65
18850;BME280;4989;48.772;9.154;2023-03-23T01:18:49;97376.69;;;14.53;56.13
18850;BME280;4989;48.772;9.154;2023-03-23T01:23:52;97372.72;;;14.45;56.42
18850;BME280;4989;48.772;9.154;2023-03-23T01:28:55;97362.13;;;14.38;56.76
18850;BME280;4989;48.772;9.154;2023-03-23T01:33:58;97346.94;;;14.37;56.69
18850;BME280;4989;48.772;9.154;2023-03-23T01:39:02;97335.94;;;14.46;56.36
18850;BME280;4989;48.772;9.154;2023-03-23T01:49:44;97329.78;;;14.70;62.44
18850;BME280;4989;48.772;9.154;2023-03-23T01:54:49;97323.44;;;14.63;56.30
18850;BME280;4989;48.772;9.154;2023-03-23T01:59:57;97326.38;;;14.51;56.85
18850;BME280;4989;48.772;9.154;2023-03-23T02:05:32;97333.44;;;14.33;56.87
18850;BME280;4989;48.772;9.154;2023-03-23T02:10:43;97331.09;;;14.50;56.61
18850;BME280;4989;48.772;9.154;2023-03-23T02:21:13;97328.72;;;14.34;56.94
18850;BME280;4989;48.772;9.154;2023-03-23T02:26:53;97323.25;;;14.34;57.33
18850;BME280;4989;48.772;9.154;2023-03-23T02:32:16;97316.59;;;14.35;57.13
18850;BME280;4989;48.772;9.154;2023-03-23T02:37:29;97297.09;;;14.42;57.72
18850;BME280;4989;48.772;9.154;2023-03-23T02:42:36;97284.00;;;14.46;58.09
18850;BME280;4989;48.772;9.154;2023-03-23T02:47:40;97274.75;;;14.53;57.89
18850;BME280;4989;48.772;9.154;2023-03-23T02:52:44;97278.53;;;14.46;58.24
18850;BME280;4989;48.772;9.154;2023-03-23T02:57:51;97264.78;;;14.64;57.79
18850;BME280;4989;48.772;9.154;2023-03-23T03:02:56;97275.53;;;14.44;58.25
18850;BME280;4989;48.772;9.154;2023-03-23T03:08:16;97268.25;;;14.41;58.42
18850;BME280;4989;48.772;9.154;2023-03-23T03:13:53;97266.72;;;14.40;58.72
18850;BME280;4989;48.772;9.154;2023-03-23T03:19:04;97259.38;;;14.46;59.27
18850;BME280;4989;48.772;9.154;2023-03-23T03:24:12;97262.97;;;14.37;58.60
18850;BME280;4989;48.772;9.154;2023-03-23T03:29:18;97259.09;;;14.53;58.41
18850;BME280;4989;48.772;9.154;2023-03-23T03:34:24;97254.47;;;14.59;58.10
18850;BME280;4989;48.772;9.154;2023-03-23T03:39:27;97259.38;;;14.94;57.58
18850;BME280;4989;48.772;9.154;2023-03-23T03:44:31;97261.91;;;15.37;57.03
18850;BME280;4989;48.772;9.154;2023-03-23T03:49:34;97255.31;;;15.28;56.10
18850;BME280;4989;48.772;9.154;2023-03-23T03:54:37;97246.41;;;15.19;56.35
18850;BME280;4989;48.772;9.154;2023-03-23T03:59:40;97243.94;;;15.06;56.72
18850;BME280;4989;48.772;9.154;2023-03-23T04:05:02;97240.34;;;15.15;56.79
18850;BME280;4989;48.772;9.154;2023-03-23T04:10:09;97236.94;;;14.90;57.51
18850;BME280;4989;48.772;9.154;2023-03-23T04:15:13;97246.66;;;15.06;62.74
18850;BME280;4989;48.772;9.154;2023-03-23T04:20:18;97257.00;;;15.26;57.03
18850;BME280;4989;48.772;9.154;2023-03-23T04:25:33;97256.25;;;15.25;57.36
18850;BME280;4989;48.772;9.154;2023-03-23T04:30:36;97256.78;;;15.15;57.13
18850;BME280;4989;48.772;9.154;2023-03-23T04:35:43;97260.94;;;15.10;57.47
18850;BME280;4989;48.772;9.154;2023-03-23T04:40:53;97250.81;;;15.01;57.63
18850;BME280;4989;48.772;9.154;2023-03-23T04:46:09;97246.38;;;14.89;58.23
18850;BME280;4989;48.772;9.154;2023-03-23T04:51:13;97246.06;;;14.87;58.28
18850;BME280;4989;48.772;9.154;2023-03-23T04:56:19;97262.19;;;14.85;58.36
18850;BME280;4989;48.772;9.154;2023-03-23T05:01:22;97255.25;;;14.99;58.75
18850;BME280;4989;48.772;9.154;2023-03-23T05:06:41;97257.44;;;15.09;57.54
18850;BME280;4989;48.772;9.154;2023-03-23T05:11:54;97248.78;;;15.26;57.30
18850;BME280;4989;48.772;9.154;2023-03-23T05:16:58;97251.13;;;15.18;57.31
18850;BME280;4989;48.772;9.154;2023-03-23T05:22:01;97241.13;;;15.30;57.14
18850;BME280;4989;48.772;9.154;2023-03-23T05:27:18;97242.63;;;15.31;56.87
18850;BME280;4989;48.772;9.154;2023-03-23T05:32:27;97249.63;;;15.32;56.77
18850;BME280;4989;48.772;9.154;2023-03-23T05:37:44;97254.06;;;15.44;56.33
18850;BME280;4989;48.772;9.154;2023-03-23T05:42:47;97247.44;;;15.66;55.78
18850;BME280;4989;48.772;9.154;2023-03-23T05:47:57;97246.53;;;15.69;55.86
18850;BME280;4989;48.772;9.154;2023-03-23T05:53:02;97243.56;;;15.57;55.75
18850;BME280;4989;48.772;9.154;2023-03-23T05:58:09;97261.91;;;15.66;55.75
18850;BME280;4989;48.772;9.154;2023-03-23T06:03:16;97251.69;;;15.67;55.76
18850;BME280;4989;48.772;9.154;2023-03-23T06:08:28;97272.69;;;15.85;55.59
18850;BME280;4989;48.772;9.154;2023-03-23T06:13:32;97282.69;;;16.02;55.06
18850;BME280;4989;48.772;9.154;2023-03-23T06:18:41;97291.09;;;15.99;54.81
18850;BME280;4989;48.772;9.154;2023-03-23T06:23:51;97287.31;;;15.96;55.13
18850;BME280;4989;48.772;9.154;2023-03-23T06:28:54;97292.25;;;15.92;55.33
18850;BME280;4989;48.772;9.154;2023-03-23T06:33:57;97299.03;;;15.82;57.39
18850;BME280;4989;48.772;9.154;2023-03-23T06:38:59;97308.03;;;15.68;58.57
18850;BME280;4989;48.772;9.154;2023-03-23T06:44:17;97303.47;;;15.65;58.81
18850;BME280;4989;48.772;9.154;2023-03-23T06:49:20;97310.28;;;15.69;57.02
18850;BME280;4989;48.772;9.154;2023-03-23T06:54:34;97312.81;;;16.02;57.56
18850;BME280;4989;48.772;9.154;2023-03-23T06:59:39;97313.56;;;16.18;55.99
18850;BME280;4989;48.772;9.154;2023-03-23T07:04:42;97321.63;;;16.42;55.91
18850;BME280;4989;48.772;9.154;2023-03-23T07:09:51;97323.63;;;16.41;55.87
18850;BME280;4989;48.772;9.154;2023-03-23T07:14:57;97329.56;;;16.19;55.78
18850;BME280;4989;48.772;9.154;2023-03-23T07:20:00;97335.97;;;16.16;55.80
18850;BME280;4989;48.772;9.154;2023-03-23T07:25:04;97342.78;;;16.21;56.04
18850;BME280;4989;48.772;9.154;2023-03-23T07:30:17;97354.03;;;16.08;56.46
18850;BME280;4989;48.772;9.154;2023-03-23T07:35:21;97357.34;;;16.12;56.77
18850;BME280;4989;48.772;9.154;2023-03-23T07:40:31;97367.75;;;16.23;56.87
18850;BME280;4989;48.772;9.154;2023-03-23T07:45:41;97372.44;;;16.52;56.15
18850;BME280;4989;48.772;9.154;2023-03-23T07:50:47;97370.53;;;16.58;55.74
18850;BME280;4989;48.772;9.154;2023-03-23T07:55:51;97366.50;;;16.74;55.71
18850;BME280;4989;48.772;9.154;2023-03-23T08:01:13;97372.19;;;16.85;56.20
18850;BME280;4989;48.772;9.154;2023-03-23T08:06:21;97371.81;;;16.63;57.12
18850;BME280;4989;48.772;9.154;2023-03-23T08:11:33;97387.16;;;16.55;58.08
18850;BME280;4989;48.772;9.154;2023-03-23T08:16:50;97401.19;;;16.27;59.61
18850;BME280;4989;48.772;9.154;2023-03-23T08:22:22;97379.63;;;16.49;59.41
18850;BME280;4989;48.772;9.154;2023-03-23T08:27:44;97393.69;;;16.57;60.25
18850;BME280;4989;48.772;9.154;2023-03-23T08:33:07;97402.00;;;16.78;59.91
18850;BME280;4989;48.772;9.154;2023-03-23T08:38:32;97415.19;;;16.44;61.20
18850;BME280;4989;48.772;9.154;2023-03-23T08:43:43;97407.72;;;16.44;61.95
18850;BME280;4989;48.772;9.154;2023-03-23T08:49:01;97407.63;;;16.24;62.73
18850;BME280;4989;48.772;9.154;2023-03-23T08:54:16;97411.22;;;16.45;63.06
18850;BME280;4989;48.772;9.154;2023-03-23T08:59:37;97426.53;;;16.52;62.82
18850;BME280;4989;48.772;9.154;2023-03-23T09:05:10;97436.38;;;16.43;63.25
18850;BME280;4989;48.772;9.154;2023-03-23T09:10:30;97427.84;;;16.71;62.32
18850;BME280;4989;48.772;9.154;2023-03-23T09:15:33;97434.38;;;17.09;61.12
18850;BME280;4989;48.772;9.154;2023-03-23T09:20:50;97441.63;;;16.91;61.38
18850;BME280;4989;48.772;9.154;2023-03-23T09:25:53;97442.03;;;16.84;61.64
18850;BME280;4989;48.772;9.154;2023-03-23T09:30:56;97450.38;;;16.45;62.46
18850;BME280;4989;48.772;9.154;2023-03-23T09:36:00;97462.69;;;16.50;62.52
18850;BME280;4989;48.772;9.154;2023-03-23T09:41:32;97448.47;;;16.52;62.59
18850;BME280;4989;48.772;9.154;2023-03-23T09:52:07;97453.19;;;16.66;62.18
18850;BME280;4989;48.772;9.154;2023-03-23T10:07:51;97470.34;;;17.11;61.49
18850;BME280;4989;48.772;9.154;2023-03-23T10:13:04;97467.31;;;17.65;59.93
18850;BME280;4989;48.772;9.154;2023-03-23T10:23:52;97470.81;;;18.12;58.75
18850;BME280;4989;48.772;9.154;2023-03-23T10:28:59;97480.97;;;18.52;57.48
18850;BME280;4989;48.772;9.154;2023-03-23T10:34:32;97481.59;;;17.89;59.33
18850;BME280;4989;48.772;9.154;2023-03-23T10:44:47;97480.69;;;17.57;61.04
18850;BME280;4989;48.772;9.154;2023-03-23T10:49:54;97491.03;;;17.82;60.77
18850;BME280;4989;48.772;9.154;2023-03-23T10:55:07;97487.13;;;18.41;58.44
18850;BME280;4989;48.772;9.154;2023-03-23T11:05:23;97476.00;;;18.56;57.54
18850;BME280;4989;48.772;9.154;2023-03-23T11:10:36;97468.00;;;18.58;58.07
18850;BME280;4989;48.772;9.154;2023-03-23T11:15:42;97481.00;;;17.79;59.72
18850;BME280;4989;48.772;9.154;2023-03-23T11:20:48;97473.81;;;17.47;60.89
18850;BME280;4989;48.772;9.154;2023-03-23T11:26:09;97480.00;;;17.62;61.47
18850;BME280;4989;48.772;9.154;2023-03-23T11:31:12;97480.81;;;17.48;61.79
18850;BME280;4989;48.772;9.154;2023-03-23T11:36:16;97458.63;;;17.51;61.59
18850;BME280;4989;48.772;9.154;2023-03-23T11:41:19;97445.47;;;18.28;59.38
18850;BME280;4989;48.772;9.154;2023-03-23T11:46:57;97451.94;;;18.83;57.97
18850;BME280;4989;48.772;9.154;2023-03-23T11:52:11;97451.63;;;19.12;57.38
18850;BME280;4989;48.772;9.154;2023-03-23T11:57:16;97452.09;;;18.42;56.58
18850;BME280;4989;48.772;9.154;2023-03-23T12:18:31;97449.44;;;18.53;55.67
18850;BME280;4989;48.772;9.154;2023-03-23T12:34:26;97438.69;;;18.23;56.22
18850;BME280;4989;48.772;9.154;2023-03-23T12:50:27;97420.56;;;21.18;49.43
18850;BME280;4989;48.772;9.154;2023-03-23T13:00:52;97420.72;;;18.97;54.49
18850;BME280;4989;48.772;9.154;2023-03-23T13:11:35;97402.38;;;18.51;56.07
18850;BME280;4989;48.772;9.154;2023-03-23T13:22:03;97389.06;;;18.75;55.38
18850;BME280;4989;48.772;9.154;2023-03-23T13:27:10;97387.63;;;18.86;55.71
18850;BME280;4989;48.772;9.154;2023-03-23T13:32:18;97386.16;;;18.96;55.76
18850;BME280;4989;48.772;9.154;2023-03-23T13:37:24;97371.19;;;19.08;55.59
18850;BME280;4989;48.772;9.154;2023-03-23T13:42:29;97376.00;;;19.13;54.51
18850;BME280;4989;48.772;9.154;2023-03-23T13:47:40;97367.47;;;19.17;54.00
18850;BME280;4989;48.772;9.154;2023-03-23T13:52:50;97355.47;;;19.20;53.78
18850;BME280;4989;48.772;9.154;2023-03-23T13:57:58;97368.28;;;19.29;54.27
18850;BME280;4989;48.772;9.154;2023-03-23T14:03:19;97356.91;;;19.04;54.18
18850;BME280;4989;48.772;9.154;2023-03-23T14:18:59;97333.25;;;18.81;55.92
18850;BME280;4989;48.772;9.154;2023-03-23T14:24:17;97331.56;;;18.51;53.67
18850;BME280;4989;48.772;9.154;2023-03-23T14:29:21;97335.13;;;18.20;55.04
18850;BME280;4989;48.772;9.154;2023-03-23T14:34:27;97338.22;;;18.34;54.28
18850;BME280;4989;48.772;9.154;2023-03-23T14:39:32;97332.78;;;18.45;53.29
18850;BME280;4989;48.772;9.154;2023-03-23T14:44:49;97317.00;;;18.83;52.92
18850;BME280;4989;48.772;9.154;2023-03-23T14:50:00;97326.84;;;18.52;53.26
18850;BME280;4989;48.772;9.154;2023-03-23T14:55:20;97341.34;;;18.52;53.50
18850;BME280;4989;48.772;9.154;2023-03-23T15:00:30;97336.31;;;18.51;52.98
18850;BME280;4989;48.772;9.154;2023-03-23T15:05:37;97321.66;;;18.65;54.50
18850;BME280;4989;48.772;9.154;2023-03-23T15:10:42;97333.31;;;18.49;52.64
18850;BME280;4989;48.772;9.154;2023-03-23T15:15:45;97331.50;;;18.40;52.31
18850;BME280;4989;48.772;9.154;2023-03-23T15:20:49;97340.78;;;18.43;52.46
18850;BME280;4989;48.772;9.154;2023-03-23T15:25:54;97338.75;;;18.38;52.13
18850;BME280;4989;48.772;9.154;2023-03-23T15:31:02;97335.63;;;18.24;51.85
18850;BME280;4989;48.772;9.154;2023-03-23T15:36:14;97346.63;;;18.24;51.86
18850;BME280;4989;48.772;9.154;2023-03-23T15:41:27;97335.63;;;18.24;51.63
18850;BME280;4989;48.772;9.154;2023-03-23T15:46:30;97346.63;;;18.19;51.92
18850;BME280;4989;48.772;9.154;2023-03-23T15:51:32;97334.50;;;18.05;52.05
18850;BME280;4989;48.772;9.154;2023-03-23T15:56:35;97336.44;;;17.99;52.27
18850;BME280;4989;48.772;9.154;2023-03-23T16:01:40;97326.44;;;17.96;52.55
18850;BME280;4989;48.772;9.154;2023-03-23T16:06:44;97337.53;;;17.81;53.01
18850;BME280;4989;48.772;9.154;2023-03-23T16:11:46;97327.13;;;17.91;52.90
18850;BME280;4989;48.772;9.154;2023-03-23T16:16:50;97336.94;;;17.71;54.05
18850;BME280;4989;48.772;9.154;2023-03-23T16:21:54;97337.41;;;17.70;53.41
18850;BME280;4989;48.772;9.154;2023-03-23T16:27:05;97333.38;;;17.65;53.48
18850;BME280;4989;48.772;9.154;2023-03-23T16:32:08;97340.00;;;17.79;54.58
18850;BME280;4989;48.772;9.154;2023-03-23T16:37:10;97343.19;;;17.98;53.07
18850;BME280;4989;48.772;9.154;2023-03-23T16:42:13;97352.16;;;17.72;54.03
18850;BME280;4989;48.772;9.154;2023-03-23T16:47:17;97345.78;;;17.81;54.56
18850;BME280;4989;48.772;9.154;2023-03-23T16:52:24;97349.09;;;18.17;55.07
18850;BME280;4989;48.772;9.154;2023-03-23T16:57:27;97348.41;;;17.96;54.20
18850;BME280;4989;48.772;9.154;2023-03-23T17:02:30;97351.19;;;17.75;54.60
18850;BME280;4989;48.772;9.154;2023-03-23T17:07:32;97348.75;;;17.77;54.25
18850;BME280;4989;48.772;9.154;2023-03-23T17:12:35;97340.81;;;17.59;54.96
18850;BME280;4989;48.772;9.154;2023-03-23T17:17:38;97332.28;;;17.57;54.45
18850;BME280;4989;48.772;9.154;2023-03-23T17:22:41;97317.31;;;17.32;55.95
18850;BME280;4989;48.772;9.154;2023-03-23T17:27:44;97325.91;;;16.99;56.72
18850;BME280;4989;48.772;9.154;2023-03-23T17:32:47;97331.81;;;16.91;57.37
18850;BME280;4989;48.772;9.154;2023-03-23T17:37:50;97326.66;;;16.99;57.42
18850;BME280;4989;48.772;9.154;2023-03-23T17:42:52;97329.63;;;16.96;57.71
18850;BME280;4989;48.772;9.154;2023-03-23T17:47:55;97323.44;;;17.01;58.92
18850;BME280;4989;48.772;9.154;2023-03-23T17:52:58;97323.31;;;17.10;57.78
18850;BME280;4989;48.772;9.154;2023-03-23T17:58:02;97327.69;;;16.81;59.41
18850;BME280;4989;48.772;9.154;2023-03-23T18:03:05;97328.31;;;16.91;58.87
18850;BME280;4989;48.772;9.154;2023-03-23T18:08:08;97332.81;;;16.74;59.31
18850;BME280;4989;48.772;9.154;2023-03-23T18:13:12;97326.63;;;16.58;59.75
18850;BME280;4989;48.772;9.154;2023-03-23T18:18:15;97335.88;;;16.61;59.76
18850;BME280;4989;48.772;9.154;2023-03-23T18:23:17;97332.78;;;16.53;60.02
18850;BME280;4989;48.772;9.154;2023-03-23T18:28:21;97330.78;;;16.54;60.19
18850;BME280;4989;48.772;9.154;2023-03-23T18:33:24;97332.97;;;16.49;60.56
18850;BME280;4989;48.772;9.154;2023-03-23T18:38:27;97324.00;;;16.49;60.69
18850;BME280;4989;48.772;9.154;2023-03-23T18:43:30;97327.03;;;16.36;61.26
18850;BME280;4989;48.772;9.154;2023-03-23T18:48:33;97327.03;;;16.36;61.50
18850;BME280;4989;48.772;9.154;2023-03-23T18:53:35;97333.47;;;16.33;61.84
18850;BME280;4989;48.772;9.154;2023-03-23T18:58:38;97341.16;;;16.29;61.94
18850;BME280;4989;48.772;9.154;2023-03-23T19:03:41;97350.78;;;16.39;61.98
18850;BME280;4989;48.772;9.154;2023-03-23T19:08:45;97341.69;;;16.48;61.85
18850;BME280;4989;48.772;9.154;2023-03-23T19:13:48;97345.88;;;16.43;61.90
18850;BME280;4989;48.772;9.154;2023-03-23T19:19:04;97345.56;;;16.41;61.96
18850;BME280;4989;48.772;9.154;2023-03-23T19:24:09;97352.31;;;16.40;62.05
18850;BME280;4989;48.772;9.154;2023-03-23T19:29:16;97345.53;;;16.56;61.94
18850;BME280;4989;48.772;9.154;2023-03-23T19:34:22;97353.91;;;16.47;61.87
18850;BME280;4989;48.772;9.154;2023-03-23T19:39:26;97341.97;;;16.50;64.61
18850;BME280;4989;48.772;9.154;2023-03-23T19:44:28;97347.63;;;16.61;61.93
18850;BME280;4989;48.772;9.154;2023-03-23T19:49:31;97342.63;;;16.45;62.19
18850;BME280;4989;48.772;9.154;2023-03-23T19:54:34;97344.06;;;16.40;62.54
18850;BME280;4989;48.772;9.154;2023-03-23T19:59:37;97332.16;;;16.43;62.30
18850;BME280;4989;48.772;9.154;2023-03-23T20:04:40;97333.47;;;16.33;62.92
18850;BME280;4989;48.772;9.154;2023-03-23T20:09:46;97324.59;;;16.38;62.58
18850;BME280;4989;48.772;9.154;2023-03-23T20:14:49;97328.19;;;16.30;62.62
18850;BME280;4989;48.772;9.154;2023-03-23T20:19:52;97329.47;;;16.14;63.13
18850;BME280;4989;48.772;9.154;2023-03-23T20:24:55;97325.47;;;16.15;63.22
18850;BME280;4989;48.772;9.154;2023-03-23T20:29:57;97319.25;;;16.14;63.25
18850;BME280;4989;48.772;9.154;2023-03-23T20:35:01;97319.91;;;16.09;63.76
18850;BME280;4989;48.772;9.154;2023-03-23T20:40:10;97300.44;;;16.22;63.12
18850;BME280;4989;48.772;9.154;2023-03-23T20:45:15;97308.53;;;16.31;63.09
18850;BME280;4989;48.772;9.154;2023-03-23T20:50:17;97307.00;;;16.30;63.43
18850;BME280;4989;48.772;9.154;2023-03-23T20:55:21;97302.34;;;16.36;63.22
18850;BME280;4989;48.772;9.154;2023-03-23T21:00:24;97300.03;;;16.29;62.72
18850;BME280;4989;48.772;9.154;2023-03-23T21:05:27;97296.28;;;16.12;63.37
18850;BME280;4989;48.772;9.154;2023-03-23T21:10:30;97294.53;;;16.29;63.28
18850;BME280;4989;48.772;9.154;2023-03-23T21:15:33;97292.19;;;16.22;62.88
18850;BME280;4989;48.772;9.154;2023-03-23T21:20:36;97290.13;;;16.17;63.13
18850;BME280;4989;48.772;9.154;2023-03-23T21:25:41;97285.47;;;16.23;64.12
18850;BME280;4989;48.772;9.154;2023-03-23T21:30:45;97276.59;;;16.28;63.52
18850;BME280;4989;48.772;9.154;2023-03-23T21:35:50;97267.31;;;16.25;63.00
18850;BME280;4989;48.772;9.154;2023-03-23T21:40:54;97260.06;;;16.43;62.70
18850;BME280;4989;48.772;9.154;2023-03-23T21:45:58;97252.47;;;16.53;62.37
18850;BME280;4989;48.772;9.154;2023-03-23T21:51:05;97245.88;;;16.44;62.11
18850;BME280;4989;48.772;9.154;2023-03-23T21:56:09;97238.53;;;16.36;62.71
18850;BME280;4989;48.772;9.154;2023-03-23T22:01:12;97228.72;;;16.29;62.54
18850;BME280;4989;48.772;9.154;2023-03-23T22:06:20;97223.81;;;16.18;63.24
18850;BME280;4989;48.772;9.154;2023-03-23T22:11:27;97207.88;;;16.17;63.29
18850;BME280;4989;48.772;9.154;2023-03-23T22:16:31;97197.31;;;16.10;63.48
18850;BME280;4989;48.772;9.154;2023-03-23T22:21:34;97195.28;;;16.25;62.90
18850;BME280;4989;48.772;9.154;2023-03-23T22:26:38;97184.31;;;16.25;62.96
18850;BME280;4989;48.772;9.154;2023-03-23T22:31:41;97179.88;;;15.92;64.36
18850;BME280;4989;48.772;9.154;2023-03-23T22:36:44;97157.25;;;15.77;64.26
18850;BME280;4989;48.772;9.154;2023-03-23T22:41:47;97142.50;;;15.60;65.46
18850;BME280;4989;48.772;9.154;2023-03-23T22:46:50;97152.75;;;15.44;66.01
18850;BME280;4989;48.772;9.154;2023-03-23T22:51:53;97136.88;;;15.48;65.96
18850;BME280;4989;48.772;9.154;2023-03-23T22:56:55;97146.72;;;15.40;66.64
18850;BME280;4989;48.772;9.154;2023-03-23T23:01:58;97133.69;;;15.35;66.49
18850;BME280;4989;48.772;9.154;2023-03-23T23:07:01;97132.19;;;15.34;66.59
18850;BME280;4989;48.772;9.154;2023-03-23T23:12:14;97131.41;;;15.33;66.48
18850;BME280;4989;48.772;9.154;2023-03-23T23:17:18;97133.69;;;15.35;66.30
18850;BME280;4989;48.772;9.154;2023-03-23T23:22:21;97142.19;;;15.37;66.57
18850;BME280;4989;48.772;9.154;2023-03-23T23:27:23;97148.44;;;15.58;66.36
18850;BME280;4989;48.772;9.154;2023-03-23T23:32:26;97145.16;;;15.69;66.63
18850;BME280;4989;48.772;9.154;2023-03-23T23:37:33;97153.59;;;15.50;66.97
18850;BME280;4989;48.772;9.154;2023-03-23T23:42:36;97178.97;;;15.80;70.22
18850;BME280;4989;48.772;9.154;2023-03-23T23:47:38;97183.91;;;15.97;72.20
18850;BME280;4989;48.772;9.154;2023-03-23T23:52:43;97164.03;;;15.67;71.22
18850;BME280;4989;48.772;9.154;2023-03-23T23:57:47;97143.31;;;15.30;72.98
